sensor_id;sensor_type;location;lat;lon;timestamp;pressure;altitude;pressure_sealevel;temperature;humidity
20037;BME280;10179;42.640;23.312;2023-05-18T00:02:06;93111.38;;;15.18;65.88
20037;BME280;10179;42.640;23.312;2023-05-18T00:04:33;93052.44;;;14.82;65.68
20037;BME280;10179;42.640;23.312;2023-05-18T00:07:00;93107.69;;;15.14;65.71
20037;BME280;10179;42.640;23.312;2023-05-18T00:09:29;93211.66;;;15.81;65.92
20037;BME280;10179;42.640;23.312;2023-05-18T00:11:56;93203.97;;;15.74;65.70
20037;BME280;10179;42.640;23.312;2023-05-18T00:14:21;93202.66;;;15.77;65.97
20037;BME280;10179;42.640;23.312;2023-05-18T00:16:47;93097.38;;;15.02;65.81
20037;BME280;10179;42.640;23.312;2023-05-18T00:19:13;93216.13;;;15.85;65.74
20037;BME280;10179;42.640;23.312;2023-05-18T00:21:42;93215.59;;;15.88;65.69
20037;BME280;10179;42.640;23.312;2023-05-18T00:24:10;93218.78;;;15.90;65.63
20037;BME280;10179;42.640;23.312;2023-05-18T00:26:48;93220.88;;;15.93;65.53
20037;BME280;10179;42.640;23.312;2023-05-18T00:29:14;93234.13;;;15.93;65.65
20037;BME280;10179;42.640;23.312;2023-05-18T00:31:40;93201.03;;;15.86;65.68
20037;BME280;10179;42.640;23.312;2023-05-18T00:34:07;93212.41;;;15.96;65.49
20037;BME280;10179;42.640;23.312;2023-05-18T00:36:34;93220.09;;;15.98;65.68
20037;BME280;10179;42.640;23.312;2023-05-18T00:39:00;93100.53;;;15.19;65.43
20037;BME280;10179;42.640;23.312;2023-05-18T00:41:26;93179.63;;;15.67;65.63
20037;BME280;10179;42.640;23.312;2023-05-18T00:43:55;93221.91;;;16.03;65.41
20037;BME280;10179;42.640;23.312;2023-05-18T00:46:24;93155.25;;;15.60;65.12
20037;BME280;10179;42.640;23.312;2023-05-18T00:48:50;93217.69;;;15.96;65.28
20037;BME280;10179;42.640;23.312;2023-05-18T00:51:20;93202.34;;;15.88;65.18
20037;BME280;10179;42.640;23.312;2023-05-18T00:53:50;93207.09;;;16.02;65.30
20037;BME280;10179;42.640;23.312;2023-05-18T00:56:17;93171.41;;;15.84;65.45
20037;BME280;10179;42.640;23.312;2023-05-18T00:58:43;93205.50;;;16.06;65.17
20037;BME280;10179;42.640;23.312;2023-05-18T01:01:10;93198.09;;;16.08;65.55
20037;BME280;10179;42.640;23.312;2023-05-18T01:03:36;93086.75;;;15.38;65.16
20037;BME280;10179;42.640;23.312;2023-05-18T01:06:05;93172.66;;;15.96;65.22
20037;BME280;10179;42.640;23.312;2023-05-18T01:08:31;93184.34;;;16.01;65.10
20037;BME280;10179;42.640;23.312;2023-05-18T01:11:13;93180.59;;;16.07;65.44
20037;BME280;10179;42.640;23.312;2023-05-18T01:16:23;93201.50;;;16.13;64.98
20037;BME280;10179;42.640;23.312;2023-05-18T01:19:05;93201.25;;;16.15;65.11
20037;BME280;10179;42.640;23.312;2023-05-18T01:21:55;93203.63;;;16.11;65.32
20037;BME280;10179;42.640;23.312;2023-05-18T01:24:30;93211.59;;;16.11;65.04
20037;BME280;10179;42.640;23.312;2023-05-18T01:27:00;93111.84;;;15.50;65.16
20037;BME280;10179;42.640;23.312;2023-05-18T01:29:28;93213.97;;;16.08;65.17
20037;BME280;10179;42.640;23.312;2023-05-18T01:31:56;93211.34;;;16.08;64.70
20037;BME280;10179;42.640;23.312;2023-05-18T01:34:22;93206.28;;;16.06;64.92
20037;BME280;10179;42.640;23.312;2023-05-18T01:36:47;93213.72;;;16.04;64.75
20037;BME280;10179;42.640;23.312;2023-05-18T01:39:13;93047.13;;;14.97;64.87
20037;BME280;10179;42.640;23.312;2023-05-18T01:41:50;93211.34;;;15.97;64.73
20037;BME280;10179;42.640;23.312;2023-05-18T01:44:30;93218.78;;;15.90;65.07
20037;BME280;10179;42.640;23.312;2023-05-18T01:52:19;93179.63;;;15.77;65.49
20037;BME280;10179;42.640;23.312;2023-05-18T01:54:49;93204.19;;;15.98;65.40
20037;BME280;10179;42.640;23.312;2023-05-18T01:57:17;93206.06;;;15.97;65.37
20037;BME280;10179;42.640;23.312;2023-05-18T01:59:45;93213.47;;;16.01;65.56
20037;BME280;10179;42.640;23.312;2023-05-18T02:02:10;93160.81;;;15.63;65.19
20037;BME280;10179;42.640;23.312;2023-05-18T02:04:36;93060.91;;;14.99;65.12
20037;BME280;10179;42.640;23.312;2023-05-18T02:07:02;93213.47;;;16.01;65.46
20037;BME280;10179;42.640;23.312;2023-05-18T02:09:27;93216.38;;;16.04;65.39
20037;BME280;10179;42.640;23.312;2023-05-18T02:11:53;93161.91;;;15.72;65.30
20037;BME280;10179;42.640;23.312;2023-05-18T02:14:18;93220.31;;;16.12;65.36
20037;BME280;10179;42.640;23.312;2023-05-18T02:16:43;93222.97;;;16.12;65.06
20037;BME280;10179;42.640;23.312;2023-05-18T02:19:17;93018.88;;;14.77;65.17
20037;BME280;10179;42.640;23.312;2023-05-18T02:21:43;93220.84;;;16.09;65.37
20037;BME280;10179;42.640;23.312;2023-05-18T02:24:09;93217.13;;;16.10;65.18
20037;BME280;10179;42.640;23.312;2023-05-18T02:26:35;93229.31;;;16.11;65.13
20037;BME280;10179;42.640;23.312;2023-05-18T02:29:02;93104.47;;;15.37;65.33
20037;BME280;10179;42.640;23.312;2023-05-18T02:31:27;93220.56;;;16.15;65.27
20037;BME280;10179;42.640;23.312;2023-05-18T02:33:53;93216.31;;;16.19;65.34
20037;BME280;10179;42.640;23.312;2023-05-18T02:36:19;93215.00;;;16.22;64.96
20037;BME280;10179;42.640;23.312;2023-05-18T02:38:46;93054.78;;;15.19;65.22
20037;BME280;10179;42.640;23.312;2023-05-18T02:41:13;93182.50;;;15.91;64.97
20037;BME280;10179;42.640;23.312;2023-05-18T02:43:38;93191.72;;;16.04;64.83
20037;BME280;10179;42.640;23.312;2023-05-18T02:46:04;92993.22;;;14.72;64.73
20037;BME280;10179;42.640;23.312;2023-05-18T02:48:30;93202.31;;;16.09;65.17
20037;BME280;10179;42.640;23.312;2023-05-18T02:50:55;93229.28;;;16.21;64.74
20037;BME280;10179;42.640;23.312;2023-05-18T02:53:21;93231.94;;;16.21;64.91
20037;BME280;10179;42.640;23.312;2023-05-18T02:55:47;93142.00;;;15.65;64.85
20037;BME280;10179;42.640;23.312;2023-05-18T02:58:13;93222.44;;;16.10;65.08
20037;BME280;10179;42.640;23.312;2023-05-18T03:00:39;93182.78;;;15.84;64.99
20037;BME280;10179;42.640;23.312;2023-05-18T03:03:05;93251.28;;;16.21;65.17
20037;BME280;10179;42.640;23.312;2023-05-18T03:05:37;93249.44;;;16.17;65.10
20037;BME280;10179;42.640;23.312;2023-05-18T03:08:03;93266.63;;;16.25;65.17
20037;BME280;10179;42.640;23.312;2023-05-18T03:10:29;93214.03;;;15.87;65.18
20037;BME280;10179;42.640;23.312;2023-05-18T03:12:54;93209.75;;;15.86;65.24
20037;BME280;10179;42.640;23.312;2023-05-18T03:15:20;93242.03;;;16.04;64.80
20037;BME280;10179;42.640;23.312;2023-05-18T03:17:46;93269.56;;;16.18;65.02
20037;BME280;10179;42.640;23.312;2023-05-18T03:20:11;93256.91;;;16.05;65.16
20037;BME280;10179;42.640;23.312;2023-05-18T03:22:38;93169.56;;;15.38;65.12
20037;BME280;10179;42.640;23.312;2023-05-18T03:25:04;93198.13;;;15.57;65.14
20037;BME280;10179;42.640;23.312;2023-05-18T03:27:30;93264.81;;;16.10;65.08
20037;BME280;10179;42.640;23.312;2023-05-18T03:29:55;93255.28;;;16.04;65.26
20037;BME280;10179;42.640;23.312;2023-05-18T03:32:22;93303.47;;;16.21;65.03
20037;BME280;10179;42.640;23.312;2023-05-18T03:34:49;93256.09;;;15.99;65.08
20037;BME280;10179;42.640;23.312;2023-05-18T03:37:16;93258.25;;;15.97;65.07
20037;BME280;10179;42.640;23.312;2023-05-18T03:39:42;93290.25;;;16.16;65.26
20037;BME280;10179;42.640;23.312;2023-05-18T03:42:08;93271.72;;;16.06;65.12
20037;BME280;10179;42.640;23.312;2023-05-18T03:44:33;93291.84;;;16.17;65.12
20037;BME280;10179;42.640;23.312;2023-05-18T03:46:58;93295.28;;;16.17;64.86
20037;BME280;10179;42.640;23.312;2023-05-18T03:49:24;93296.09;;;16.08;64.98
20037;BME280;10179;42.640;23.312;2023-05-18T03:51:50;93275.97;;;15.91;64.89
20037;BME280;10179;42.640;23.312;2023-05-18T03:54:18;93310.91;;;16.14;64.84
20037;BME280;10179;42.640;23.312;2023-05-18T03:56:43;93307.75;;;16.12;65.00
20037;BME280;10179;42.640;23.312;2023-05-18T03:59:09;93307.22;;;16.10;64.74
20037;BME280;10179;42.640;23.312;2023-05-18T04:01:34;93304.84;;;16.08;65.02
20037;BME280;10179;42.640;23.312;2023-05-18T04:04:00;93316.22;;;16.09;64.87
20037;BME280;10179;42.640;23.312;2023-05-18T04:06:25;93312.50;;;16.10;65.23
20037;BME280;10179;42.640;23.312;2023-05-18T04:08:52;93314.09;;;16.11;64.95
20037;BME280;10179;42.640;23.312;2023-05-18T04:11:17;93273.34;;;15.71;65.00
20037;BME280;10179;42.640;23.312;2023-05-18T04:13:43;93321.53;;;16.09;64.81
20037;BME280;10179;42.640;23.312;2023-05-18T04:16:08;93280.22;;;15.82;64.76
20037;BME280;10179;42.640;23.312;2023-05-18T04:18:38;93331.06;;;16.10;65.05
20037;BME280;10179;42.640;23.312;2023-05-18T04:21:04;93139.97;;;14.95;64.96
20037;BME280;10179;42.640;23.312;2023-05-18T04:23:31;93315.19;;;16.05;65.21
20037;BME280;10179;42.640;23.312;2023-05-18T04:25:58;93169.59;;;15.18;65.23
20037;BME280;10179;42.640;23.312;2023-05-18T04:28:24;93272.81;;;15.84;65.13
20037;BME280;10179;42.640;23.312;2023-05-18T04:30:49;93305.09;;;16.12;65.15
20037;BME280;10179;42.640;23.312;2023-05-18T04:33:16;93318.06;;;16.23;64.89
20037;BME280;10179;42.640;23.312;2023-05-18T04:35:42;93308.25;;;16.14;65.04
20037;BME280;10179;42.640;23.312;2023-05-18T04:38:07;93327.06;;;16.28;65.11
20037;BME280;10179;42.640;23.312;2023-05-18T04:40:32;93293.19;;;16.09;65.20
20037;BME280;10179;42.640;23.312;2023-05-18T04:42:58;93331.56;;;16.32;65.19
20037;BME280;10179;42.640;23.312;2023-05-18T04:45:24;93317.81;;;16.25;64.91
20037;BME280;10179;42.640;23.312;2023-05-18T04:47:50;93319.91;;;16.28;64.93
20037;BME280;10179;42.640;23.312;2023-05-18T04:50:19;93340.28;;;16.38;65.08
20037;BME280;10179;42.640;23.312;2023-05-18T04:52:47;93347.44;;;16.42;64.95
20037;BME280;10179;42.640;23.312;2023-05-18T04:55:22;93307.75;;;16.22;65.13
20037;BME280;10179;42.640;23.312;2023-05-18T04:57:50;93333.94;;;16.34;64.94
20037;BME280;10179;42.640;23.312;2023-05-18T05:00:19;93308.53;;;16.17;65.09
20037;BME280;10179;42.640;23.312;2023-05-18T05:02:44;93340.03;;;16.39;65.09
20037;BME280;10179;42.640;23.312;2023-05-18T05:05:10;93364.94;;;16.54;64.94
20037;BME280;10179;42.640;23.312;2023-05-18T05:07:36;93351.19;;;16.36;65.03
20037;BME280;10179;42.640;23.312;2023-05-18T05:10:01;93366.25;;;16.61;65.23
20037;BME280;10179;42.640;23.312;2023-05-18T05:12:27;93338.66;;;16.52;65.18
20037;BME280;10179;42.640;23.312;2023-05-18T05:14:53;93374.41;;;16.70;65.05
20037;BME280;10179;42.640;23.312;2023-05-18T05:17:18;93315.13;;;16.35;64.78
20037;BME280;10179;42.640;23.312;2023-05-18T05:19:44;93368.88;;;16.77;64.84
20037;BME280;10179;42.640;23.312;2023-05-18T05:22:09;93368.63;;;16.78;64.62
20037;BME280;10179;42.640;23.312;2023-05-18T05:24:35;93370.72;;;16.81;64.47
20037;BME280;10179;42.640;23.312;2023-05-18T05:27:00;93263.22;;;16.14;64.03
20037;BME280;10179;42.640;23.312;2023-05-18T05:29:26;93375.47;;;16.84;64.10
20037;BME280;10179;42.640;23.312;2023-05-18T05:31:52;93346.34;;;16.59;63.97
20037;BME280;10179;42.640;23.312;2023-05-18T05:34:17;93287.59;;;16.21;63.78
20037;BME280;10179;42.640;23.312;2023-05-18T05:36:42;93366.50;;;16.75;63.73
20037;BME280;10179;42.640;23.312;2023-05-18T05:39:08;93360.13;;;16.71;63.45
20037;BME280;10179;42.640;23.312;2023-05-18T05:41:33;93396.16;;;16.87;63.57
20037;BME280;10179;42.640;23.312;2023-05-18T05:43:59;93382.13;;;16.77;63.06
20037;BME280;10179;42.640;23.312;2023-05-18T05:46:24;93352.19;;;16.56;63.52
20037;BME280;10179;42.640;23.312;2023-05-18T05:48:50;93389.56;;;16.85;63.28
20037;BME280;10179;42.640;23.312;2023-05-18T05:51:15;93397.75;;;16.93;63.28
20037;BME280;10179;42.640;23.312;2023-05-18T05:53:41;93400.94;;;16.90;63.13
20037;BME280;10179;42.640;23.312;2023-05-18T05:56:07;93396.16;;;16.87;63.11
20037;BME280;10179;42.640;23.312;2023-05-18T05:58:33;93397.22;;;16.86;63.08
20037;BME280;10179;42.640;23.312;2023-05-18T06:00:58;93405.72;;;16.83;62.88
20037;BME280;10179;42.640;23.312;2023-05-18T06:03:23;93384.53;;;16.68;63.15
20037;BME280;10179;42.640;23.312;2023-05-18T06:05:49;93384.25;;;16.64;63.34
20037;BME280;10179;42.640;23.312;2023-05-18T06:08:14;93400.69;;;16.72;63.56
20037;BME280;10179;42.640;23.312;2023-05-18T06:10:41;93389.56;;;16.59;63.40
20037;BME280;10179;42.640;23.312;2023-05-18T06:13:07;93409.44;;;16.62;63.60
20037;BME280;10179;42.640;23.312;2023-05-18T06:15:32;93404.69;;;16.54;63.63
20037;BME280;10179;42.640;23.312;2023-05-18T06:17:57;93326.84;;;15.98;63.77
20037;BME280;10179;42.640;23.312;2023-05-18T06:20:23;93406.84;;;16.46;63.95
20037;BME280;10179;42.640;23.312;2023-05-18T06:22:48;93347.22;;;16.08;64.05
20037;BME280;10179;42.640;23.312;2023-05-18T06:25:14;93417.44;;;16.46;64.05
20037;BME280;10179;42.640;23.312;2023-05-18T06:27:39;93414.50;;;16.48;64.24
20037;BME280;10179;42.640;23.312;2023-05-18T06:30:07;93419.25;;;16.46;63.95
20037;BME280;10179;42.640;23.312;2023-05-18T06:32:35;93382.44;;;16.24;64.25
20037;BME280;10179;42.640;23.312;2023-05-18T06:35:01;93402.06;;;16.33;64.36
20037;BME280;10179;42.640;23.312;2023-05-18T06:37:28;93428.03;;;16.41;64.13
20037;BME280;10179;42.640;23.312;2023-05-18T06:39:53;93416.91;;;16.29;64.36
20037;BME280;10179;42.640;23.312;2023-05-18T06:42:19;93430.41;;;16.38;64.34
20037;BME280;10179;42.640;23.312;2023-05-18T06:44:44;93431.47;;;16.32;64.32
20037;BME280;10179;42.640;23.312;2023-05-18T06:47:09;93424.56;;;16.20;64.09
20037;BME280;10179;42.640;23.312;2023-05-18T06:49:35;93424.84;;;16.19;64.69
20037;BME280;10179;42.640;23.312;2023-05-18T06:52:01;93424.84;;;16.14;64.51
20037;BME280;10179;42.640;23.312;2023-05-18T06:54:26;93444.72;;;16.27;65.01
20037;BME280;10179;42.640;23.312;2023-05-18T06:56:54;93430.41;;;16.17;64.88
20037;BME280;10179;42.640;23.312;2023-05-18T06:59:19;93446.06;;;16.34;64.90
20037;BME280;10179;42.640;23.312;2023-05-18T07:01:44;93454.00;;;16.34;64.97
20037;BME280;10179;42.640;23.312;2023-05-18T07:04:10;93457.72;;;16.38;64.99
20037;BME280;10179;42.640;23.312;2023-05-18T07:06:35;93467.78;;;16.41;65.25
20037;BME280;10179;42.640;23.312;2023-05-18T07:09:01;93464.06;;;16.42;65.36
20037;BME280;10179;42.640;23.312;2023-05-18T07:11:27;93355.94;;;15.78;65.04
20037;BME280;10179;42.640;23.312;2023-05-18T07:13:53;93442.06;;;16.32;64.98
20037;BME280;10179;42.640;23.312;2023-05-18T07:16:18;93472.03;;;16.58;65.10
20037;BME280;10179;42.640;23.312;2023-05-18T07:18:43;93477.31;;;16.63;64.77
20037;BME280;10179;42.640;23.312;2023-05-18T07:21:09;93486.88;;;16.64;64.56
20037;BME280;10179;42.640;23.312;2023-05-18T07:23:35;93487.41;;;16.66;64.56
20037;BME280;10179;42.640;23.312;2023-05-18T07:26:01;93487.69;;;16.64;64.22
20037;BME280;10179;42.640;23.312;2023-05-18T07:28:26;93448.72;;;16.39;64.47
20037;BME280;10179;42.640;23.312;2023-05-18T07:30:51;93481.59;;;16.64;63.99
20037;BME280;10179;42.640;23.312;2023-05-18T07:33:17;93488.47;;;16.65;64.08
20037;BME280;10179;42.640;23.312;2023-05-18T07:35:42;93495.34;;;16.66;64.25
20037;BME280;10179;42.640;23.312;2023-05-18T07:38:07;93503.56;;;16.69;64.18
20037;BME280;10179;42.640;23.312;2023-05-18T07:40:33;93503.84;;;16.68;63.58
20037;BME280;10179;42.640;23.312;2023-05-18T07:42:58;93498.00;;;16.66;63.58
20037;BME280;10179;42.640;23.312;2023-05-18T07:45:23;93505.97;;;16.66;63.67
20037;BME280;10179;42.640;23.312;2023-05-18T07:47:49;93510.75;;;16.64;62.64
20037;BME280;10179;42.640;23.312;2023-05-18T07:50:14;93381.06;;;15.65;62.10
20037;BME280;10179;42.640;23.312;2023-05-18T07:52:40;93514.69;;;16.46;62.45
20037;BME280;10179;42.640;23.312;2023-05-18T07:55:06;93517.09;;;16.32;62.31
20037;BME280;10179;42.640;23.312;2023-05-18T07:57:33;93522.94;;;16.39;62.30
20037;BME280;10179;42.640;23.312;2023-05-18T07:59:58;93521.31;;;16.38;62.57
20037;BME280;10179;42.640;23.312;2023-05-18T08:02:23;93526.09;;;16.36;62.62
20037;BME280;10179;42.640;23.312;2023-05-18T08:04:50;93485.78;;;16.09;62.52
20037;BME280;10179;42.640;23.312;2023-05-18T08:07:16;93535.38;;;16.49;62.53
20037;BME280;10179;42.640;23.312;2023-05-18T08:09:42;93418.91;;;15.56;62.91
20037;BME280;10179;42.640;23.312;2023-05-18T08:12:08;93490.06;;;16.25;62.69
20037;BME280;10179;42.640;23.312;2023-05-18T08:14:34;93544.16;;;16.65;62.52
20037;BME280;10179;42.640;23.312;2023-05-18T08:16:59;93536.47;;;16.58;62.48
20037;BME280;10179;42.640;23.312;2023-05-18T08:19:24;93552.63;;;16.67;62.13
20037;BME280;10179;42.640;23.312;2023-05-18T08:21:50;93521.84;;;16.45;62.06
20037;BME280;10179;42.640;23.312;2023-05-18T08:24:16;93556.91;;;16.68;61.82
20037;BME280;10179;42.640;23.312;2023-05-18T08:26:41;93556.09;;;16.67;61.50
20037;BME280;10179;42.640;23.312;2023-05-18T08:29:06;93556.91;;;16.68;61.60
20037;BME280;10179;42.640;23.312;2023-05-18T08:31:43;93528.47;;;16.38;61.37
20037;BME280;10179;42.640;23.312;2023-05-18T08:34:09;93503.28;;;16.20;60.73
20037;BME280;10179;42.640;23.312;2023-05-18T08:36:34;93570.38;;;16.56;60.62
20037;BME280;10179;42.640;23.312;2023-05-18T08:39:00;93568.81;;;16.55;60.42
20037;BME280;10179;42.640;23.312;2023-05-18T08:41:41;93557.41;;;16.55;60.93
20037;BME280;10179;42.640;23.312;2023-05-18T08:44:29;93575.19;;;16.69;60.43
20037;BME280;10179;42.640;23.312;2023-05-18T08:46:55;93580.75;;;16.63;59.77
20037;BME280;10179;42.640;23.312;2023-05-18T08:49:23;93476.19;;;15.82;59.33
20037;BME280;10179;42.640;23.312;2023-05-18T08:51:59;93587.63;;;16.54;59.90
20037;BME280;10179;42.640;23.312;2023-05-18T08:54:28;93524.97;;;16.07;59.96
20037;BME280;10179;42.640;23.312;2023-05-18T08:56:55;93590.25;;;16.49;60.08
20037;BME280;10179;42.640;23.312;2023-05-18T08:59:26;93601.41;;;16.56;60.16
20037;BME280;10179;42.640;23.312;2023-05-18T09:01:53;93588.69;;;16.48;59.82
20037;BME280;10179;42.640;23.312;2023-05-18T09:04:20;93608.34;;;16.57;59.68
20037;BME280;10179;42.640;23.312;2023-05-18T09:06:47;93539.81;;;16.03;59.91
20037;BME280;10179;42.640;23.312;2023-05-18T09:09:13;93557.34;;;16.19;59.75
20037;BME280;10179;42.640;23.312;2023-05-18T09:11:38;93619.22;;;16.60;59.74
20037;BME280;10179;42.640;23.312;2023-05-18T09:14:05;93613.63;;;16.57;59.94
20037;BME280;10179;42.640;23.312;2023-05-18T09:16:31;93603.28;;;16.50;59.67
20037;BME280;10179;42.640;23.312;2023-05-18T09:18:57;93622.09;;;16.59;59.60
20037;BME280;10179;42.640;23.312;2023-05-18T09:21:23;93617.59;;;16.59;59.36
20037;BME280;10179;42.640;23.312;2023-05-18T09:23:49;93616.28;;;16.62;59.24
20037;BME280;10179;42.640;23.312;2023-05-18T09:26:14;93578.06;;;16.37;58.87
20037;BME280;10179;42.640;23.312;2023-05-18T09:28:41;93627.41;;;16.59;59.27
20037;BME280;10179;42.640;23.312;2023-05-18T09:31:09;93616.28;;;16.57;59.24
20037;BME280;10179;42.640;23.312;2023-05-18T09:33:37;93627.69;;;16.57;59.16
20037;BME280;10179;42.640;23.312;2023-05-18T09:36:04;93601.38;;;16.45;58.69
20037;BME280;10179;42.640;23.312;2023-05-18T09:38:35;93627.94;;;16.56;58.68
20037;BME280;10179;42.640;23.312;2023-05-18T09:41:01;93606.41;;;16.42;59.05
20037;BME280;10179;42.640;23.312;2023-05-18T09:43:26;93584.91;;;16.23;59.01
20037;BME280;10179;42.640;23.312;2023-05-18T09:45:52;93600.28;;;16.31;58.58
20037;BME280;10179;42.640;23.312;2023-05-18T09:48:17;93631.09;;;16.53;58.79
20037;BME280;10179;42.640;23.312;2023-05-18T09:50:43;93575.34;;;16.12;58.82
20037;BME280;10179;42.640;23.312;2023-05-18T09:53:10;93633.22;;;16.51;58.79
20037;BME280;10179;42.640;23.312;2023-05-18T09:55:47;93643.84;;;16.56;58.63
20037;BME280;10179;42.640;23.312;2023-05-18T09:58:12;93632.16;;;16.52;58.27
20037;BME280;10179;42.640;23.312;2023-05-18T10:00:47;93642.81;;;16.62;58.83
20037;BME280;10179;42.640;23.312;2023-05-18T10:03:21;93645.44;;;16.67;58.32
20037;BME280;10179;42.640;23.312;2023-05-18T10:05:47;93535.03;;;15.99;57.92
20037;BME280;10179;42.640;23.312;2023-05-18T10:08:13;93610.41;;;16.44;57.88
20037;BME280;10179;42.640;23.312;2023-05-18T10:10:45;93645.47;;;16.72;58.22
20037;BME280;10179;42.640;23.312;2023-05-18T10:13:12;93533.44;;;15.98;58.03
20037;BME280;10179;42.640;23.312;2023-05-18T10:15:48;93637.53;;;16.72;57.88
20037;BME280;10179;42.640;23.312;2023-05-18T10:18:21;93658.28;;;16.85;57.67
20037;BME280;10179;42.640;23.312;2023-05-18T10:20:48;93658.25;;;16.90;57.76
20037;BME280;10179;42.640;23.312;2023-05-18T10:23:13;93644.47;;;16.93;57.47
20037;BME280;10179;42.640;23.312;2023-05-18T10:25:41;93610.72;;;16.68;57.43
20037;BME280;10179;42.640;23.312;2023-05-18T10:28:09;93651.63;;;16.88;57.24
20037;BME280;10179;42.640;23.312;2023-05-18T10:30:36;93600.66;;;16.60;56.78
20037;BME280;10179;42.640;23.312;2023-05-18T10:33:04;93672.63;;;17.00;57.13
20037;BME280;10179;42.640;23.312;2023-05-18T10:35:30;93667.31;;;17.00;57.37
20037;BME280;10179;42.640;23.312;2023-05-18T10:37:58;93664.91;;;16.98;57.35
20037;BME280;10179;42.640;23.312;2023-05-18T10:40:26;93666.22;;;17.01;56.91
20037;BME280;10179;42.640;23.312;2023-05-18T10:42:55;93641.00;;;16.83;57.26
20037;BME280;10179;42.640;23.312;2023-05-18T10:45:21;93640.22;;;16.82;56.98
20037;BME280;10179;42.640;23.312;2023-05-18T10:47:48;93664.66;;;17.05;57.20
20037;BME280;10179;42.640;23.312;2023-05-18T10:50:20;93667.84;;;17.07;57.24
20037;BME280;10179;42.640;23.312;2023-05-18T10:52:47;93577.00;;;16.49;56.84
20037;BME280;10179;42.640;23.312;2023-05-18T10:55:13;93634.41;;;16.85;56.69
20037;BME280;10179;42.640;23.312;2023-05-18T10:57:43;93679.50;;;17.16;56.57
20037;BME280;10179;42.640;23.312;2023-05-18T11:00:11;93663.06;;;17.09;56.50
20037;BME280;10179;42.640;23.312;2023-05-18T11:02:38;93676.59;;;17.23;56.31
20037;BME280;10179;42.640;23.312;2023-05-18T11:05:07;93682.97;;;17.22;55.76
20037;BME280;10179;42.640;23.312;2023-05-18T11:07:33;93683.25;;;17.20;55.56
20037;BME280;10179;42.640;23.312;2023-05-18T11:10:00;93495.22;;;15.69;55.60
20037;BME280;10179;42.640;23.312;2023-05-18T11:12:26;93691.75;;;17.17;55.62
20037;BME280;10179;42.640;23.312;2023-05-18T11:14:53;93658.28;;;16.96;55.51
20037;BME280;10179;42.640;23.312;2023-05-18T11:17:23;93695.44;;;17.16;55.61
20037;BME280;10179;42.640;23.312;2023-05-18T11:27:49;93543.97;;;15.78;56.94
20037;BME280;10179;42.640;23.312;2023-05-18T11:41:29;93732.81;;;16.31;59.00
20037;BME280;10179;42.640;23.312;2023-05-18T11:44:21;93721.16;;;16.27;59.11
20037;BME280;10179;42.640;23.312;2023-05-18T11:47:07;93718.19;;;16.18;59.60
20037;BME280;10179;42.640;23.312;2023-05-18T11:49:46;93714.69;;;16.08;60.00
20037;BME280;10179;42.640;23.312;2023-05-18T11:52:17;93722.59;;;16.03;60.01
20037;BME280;10179;42.640;23.312;2023-05-18T11:54:51;93716.19;;;15.93;60.67
20037;BME280;10179;42.640;23.312;2023-05-18T11:57:40;93591.75;;;15.14;60.46
20037;BME280;10179;42.640;23.312;2023-05-18T12:00:09;93722.81;;;15.96;60.50
20037;BME280;10179;42.640;23.312;2023-05-18T12:02:36;93723.63;;;15.96;61.02
20037;BME280;10179;42.640;23.312;2023-05-18T12:05:06;93664.13;;;15.67;61.29
20037;BME280;10179;42.640;23.312;2023-05-18T12:07:33;93725.53;;;16.06;60.80
20037;BME280;10179;42.640;23.312;2023-05-18T12:10:05;93730.88;;;16.11;61.03
20037;BME280;10179;42.640;23.312;2023-05-18T12:12:31;93727.97;;;16.13;60.67
20037;BME280;10179;42.640;23.312;2023-05-18T12:15:06;93719.00;;;16.19;60.23
20037;BME280;10179;42.640;23.312;2023-05-18T12:17:41;93726.97;;;16.24;60.16
20037;BME280;10179;42.640;23.312;2023-05-18T12:20:09;93726.72;;;16.26;60.04
20037;BME280;10179;42.640;23.312;2023-05-18T12:22:37;93725.44;;;16.33;59.72
20037;BME280;10179;42.640;23.312;2023-05-18T12:25:03;93707.38;;;16.25;59.47
20037;BME280;10179;42.640;23.312;2023-05-18T12:27:28;93721.25;;;16.48;59.74
20037;BME280;10179;42.640;23.312;2023-05-18T12:29:54;93630.38;;;15.94;58.86
20037;BME280;10179;42.640;23.312;2023-05-18T12:32:19;93724.19;;;16.56;58.92
20037;BME280;10179;42.640;23.312;2023-05-18T12:34:45;93721.28;;;16.58;58.62
20037;BME280;10179;42.640;23.312;2023-05-18T12:37:10;93717.00;;;16.52;58.30
20037;BME280;10179;42.640;23.312;2023-05-18T12:39:36;93716.50;;;16.55;58.58
20037;BME280;10179;42.640;23.312;2023-05-18T12:44:33;93724.72;;;16.63;57.73
20037;BME280;10179;42.640;23.312;2023-05-18T12:46:59;93660.97;;;16.22;57.70
20037;BME280;10179;42.640;23.312;2023-05-18T12:49:24;93654.31;;;16.15;57.77
20037;BME280;10179;42.640;23.312;2023-05-18T12:51:53;93730.59;;;16.70;57.66
20037;BME280;10179;42.640;23.312;2023-05-18T12:54:29;93713.34;;;16.63;57.53
20037;BME280;10179;42.640;23.312;2023-05-18T12:56:55;93719.44;;;16.63;57.59
20037;BME280;10179;42.640;23.312;2023-05-18T12:59:25;93726.69;;;16.78;57.39
20037;BME280;10179;42.640;23.312;2023-05-18T13:01:50;93738.38;;;16.82;57.57
20037;BME280;10179;42.640;23.312;2023-05-18T13:04:16;93717.88;;;16.73;57.42
20037;BME280;10179;42.640;23.312;2023-05-18T13:06:42;93711.75;;;16.62;56.79
20037;BME280;10179;42.640;23.312;2023-05-18T13:09:10;93741.50;;;16.74;56.81
20037;BME280;10179;42.640;23.312;2023-05-18T13:11:36;93715.97;;;16.58;56.83
20037;BME280;10179;42.640;23.312;2023-05-18T13:14:03;93723.38;;;16.56;56.80
20037;BME280;10179;42.640;23.312;2023-05-18T13:16:32;93684.84;;;16.28;56.29
20037;BME280;10179;42.640;23.312;2023-05-18T13:19:02;93749.94;;;16.61;56.07
20037;BME280;10179;42.640;23.312;2023-05-18T13:21:28;93714.25;;;16.26;55.85